createdAt,value
2022-10-24T00:01:12.086Z,5.38
2022-10-24T00:03:39.284Z,3.15
2022-10-24T00:06:08.130Z,6.32
2022-10-24T00:08:36.306Z,9.60
2022-10-24T00:11:08.993Z,6.47
2022-10-24T00:13:35.686Z,7.65
2022-10-24T00:16:02.341Z,3.33
2022-10-24T00:18:29.227Z,9.40
2022-10-24T00:20:56.070Z,8.07
2022-10-24T00:23:22.913Z,6.25
2022-10-24T00:25:49.592Z,11.25
2022-10-24T00:28:16.271Z,6.25
2022-10-24T00:30:42.877Z,5.55
2022-10-24T00:33:09.536Z,8.85
2022-10-24T00:35:36.155Z,10.05
2022-10-24T00:38:02.822Z,6.60
2022-10-24T00:40:29.474Z,10.68
2022-10-24T00:42:56.255Z,10.43
2022-10-24T00:45:44.871Z,5.32
2022-10-24T00:48:43.022Z,6.57
2022-10-24T00:51:18.837Z,9.60
2022-10-24T00:53:48.103Z,7.57
2022-10-24T00:56:17.158Z,12.20
2022-10-24T00:58:44.963Z,9.10
2022-10-24T01:01:12.986Z,5.18
2022-10-24T01:03:39.881Z,2.90
2022-10-24T01:06:21.666Z,7.90
2022-10-24T01:08:58.306Z,6.10
2022-10-24T01:11:37.975Z,7.55
2022-10-24T01:14:23.408Z,8.52
2022-10-24T01:17:16.486Z,5.68
2022-10-24T01:20:22.859Z,5.53
2022-10-24T01:23:03.794Z,5.97
2022-10-24T01:26:02.899Z,5.10
2022-10-24T01:29:00.259Z,13.70
2022-10-24T01:31:40.967Z,16.40
2022-10-24T01:34:11.949Z,10.93
2022-10-24T01:36:51.840Z,6.68
2022-10-24T01:39:20.484Z,10.15
2022-10-24T01:41:47.897Z,12.40
2022-10-24T01:44:27.750Z,8.43
2022-10-24T01:47:09.000Z,12.40
2022-10-24T01:49:37.428Z,5.93
2022-10-24T01:52:08.733Z,8.32
2022-10-24T01:54:37.548Z,7.65
2022-10-24T01:57:05.558Z,8.30
2022-10-24T01:59:32.064Z,8.25
2022-10-24T02:02:11.365Z,7.88
2022-10-24T02:04:42.109Z,7.75
2022-10-24T02:07:10.365Z,12.30
2022-10-24T02:09:38.957Z,4.32
2022-10-24T02:12:09.200Z,6.10
2022-10-24T02:14:43.095Z,5.45
2022-10-24T02:17:11.169Z,3.58
2022-10-24T02:19:38.360Z,14.05
2022-10-24T02:22:15.796Z,7.07
2022-10-24T02:24:48.150Z,11.38
2022-10-24T02:27:18.814Z,7.90
2022-10-24T02:29:51.065Z,7.88
2022-10-24T02:32:23.542Z,6.63
2022-10-24T02:37:17.473Z,7.35
2022-10-24T02:39:46.774Z,8.73
2022-10-24T02:42:14.864Z,10.10
2022-10-24T02:44:42.643Z,7.60
2022-10-24T02:47:11.915Z,9.68
2022-10-24T02:49:38.792Z,7.30
2022-10-24T02:52:06.311Z,11.20
2022-10-24T02:54:33.103Z,7.43
2022-10-24T02:57:04.255Z,7.38
2022-10-24T02:59:30.988Z,9.43
2022-10-24T03:01:57.898Z,14.07
2022-10-24T03:04:24.586Z,7.07
2022-10-24T03:06:51.314Z,10.00
2022-10-24T03:09:17.993Z,11.52
2022-10-24T03:11:44.621Z,16.70
2022-10-24T03:14:11.784Z,8.63
2022-10-24T03:16:38.659Z,13.70
2022-10-24T03:19:05.386Z,12.27
2022-10-24T03:21:32.042Z,9.52
2022-10-24T03:23:58.724Z,14.93
2022-10-24T03:26:25.356Z,12.63
2022-10-24T03:28:51.965Z,8.25
2022-10-24T03:31:18.659Z,9.18
2022-10-24T03:33:45.680Z,10.82
2022-10-24T03:36:12.400Z,11.10
2022-10-24T03:38:39.119Z,11.52
2022-10-24T03:41:05.895Z,9.32
2022-10-24T03:43:32.862Z,9.60
2022-10-24T03:45:59.755Z,7.15
2022-10-24T03:48:26.753Z,13.52
2022-10-24T03:50:53.457Z,13.57
2022-10-24T03:53:20.135Z,18.33
2022-10-24T03:55:46.793Z,15.68
2022-10-24T03:58:13.957Z,16.20
2022-10-24T04:00:41.697Z,8.30
2022-10-24T04:03:09.915Z,12.23
2022-10-24T04:05:36.800Z,12.02
2022-10-24T04:08:03.791Z,9.52
2022-10-24T04:10:30.510Z,12.07
2022-10-24T04:12:57.233Z,14.32
2022-10-24T04:15:24.348Z,14.00
2022-10-24T04:17:51.056Z,14.90
2022-10-24T04:20:22.420Z,9.93
2022-10-24T04:22:49.385Z,13.93
2022-10-24T04:25:16.670Z,8.77
2022-10-24T04:27:43.340Z,9.40
2022-10-24T04:30:16.620Z,16.80
2022-10-24T04:32:44.147Z,9.27
2022-10-24T04:35:11.279Z,14.23
2022-10-24T04:37:38.025Z,14.30
2022-10-24T04:40:05.169Z,10.90
2022-10-24T04:42:31.775Z,6.72
2022-10-24T04:44:58.405Z,5.35
2022-10-24T04:47:25.052Z,14.25
2022-10-24T04:49:51.849Z,8.15
2022-10-24T04:52:18.515Z,9.80
2022-10-24T04:54:45.170Z,10.77
2022-10-24T04:57:11.818Z,11.85
2022-10-24T04:59:38.556Z,14.65
2022-10-24T05:02:05.218Z,7.65
2022-10-24T05:04:31.929Z,15.20
2022-10-24T05:06:58.708Z,8.18
2022-10-24T05:09:25.584Z,12.60
2022-10-24T05:11:54.768Z,14.23
2022-10-24T05:14:25.303Z,10.68
2022-10-24T05:16:52.128Z,13.85
2022-10-24T05:19:19.741Z,9.45
2022-10-24T05:21:46.759Z,7.32
2022-10-24T05:24:13.442Z,15.50
2022-10-24T05:26:40.163Z,12.10
2022-10-24T05:31:34.531Z,15.80
2022-10-24T05:34:01.252Z,14.68
2022-10-24T05:36:28.028Z,14.50
2022-10-24T05:38:54.680Z,12.15
2022-10-24T05:41:21.365Z,13.85
2022-10-24T05:43:47.949Z,11.20
2022-10-24T05:46:14.642Z,7.90
2022-10-24T05:48:41.310Z,10.48
2022-10-24T05:51:07.998Z,7.90
2022-10-24T05:53:34.637Z,9.43
2022-10-24T05:56:01.351Z,10.20
2022-10-24T05:58:28.047Z,17.35
2022-10-24T06:00:54.714Z,13.32
2022-10-24T06:03:22.025Z,11.85
2022-10-24T06:05:49.361Z,5.40
2022-10-24T06:08:16.212Z,13.68
2022-10-24T06:10:46.905Z,11.80
2022-10-24T06:13:13.832Z,13.07
2022-10-24T06:15:44.734Z,13.55
2022-10-24T06:18:11.359Z,22.20
2022-10-24T06:20:38.068Z,30.13
2022-10-24T06:23:04.737Z,27.50
2022-10-24T06:25:31.417Z,11.82
2022-10-24T06:27:58.041Z,15.50
2022-10-24T06:30:24.696Z,11.80
2022-10-24T06:32:51.517Z,10.18
2022-10-24T06:35:19.276Z,12.48
2022-10-24T06:37:48.213Z,14.35
2022-10-24T06:40:16.540Z,12.25
2022-10-24T06:42:43.189Z,12.05
2022-10-24T06:45:09.873Z,12.30
2022-10-24T06:47:36.659Z,13.05
2022-10-24T06:50:03.834Z,5.53
2022-10-24T06:52:30.593Z,9.95
2022-10-24T06:54:57.168Z,13.38
2022-10-24T06:57:23.887Z,10.27
2022-10-24T06:59:50.561Z,7.82
2022-10-24T07:02:17.462Z,11.68
2022-10-24T07:04:44.309Z,7.97
2022-10-24T07:07:18.982Z,14.32
2022-10-24T07:09:46.055Z,9.00
2022-10-24T07:12:12.731Z,16.40
2022-10-24T07:14:39.410Z,10.90
2022-10-24T07:17:06.104Z,11.35
2022-10-24T07:19:36.454Z,16.27
2022-10-24T07:22:04.299Z,13.70
2022-10-24T07:24:31.407Z,9.90
2022-10-24T07:26:58.065Z,15.10
2022-10-24T07:29:24.769Z,9.98
2022-10-24T07:31:51.664Z,10.05
2022-10-24T07:34:18.565Z,15.70
2022-10-24T07:36:45.269Z,14.48
2022-10-24T07:39:12.757Z,12.75
2022-10-24T07:41:41.349Z,19.95
2022-10-24T07:44:08.932Z,27.08
2022-10-24T07:46:35.601Z,24.65
2022-10-24T07:49:02.192Z,19.15
2022-10-24T07:51:29.842Z,16.55
2022-10-24T07:53:58.057Z,11.82
2022-10-24T07:56:25.113Z,9.85
2022-10-24T07:58:51.748Z,12.02
2022-10-24T08:01:23.753Z,18.05
2022-10-24T08:03:50.653Z,20.20
2022-10-24T08:06:20.804Z,15.68
2022-10-24T08:08:47.717Z,15.70
2022-10-24T08:11:16.791Z,17.52
2022-10-24T08:13:43.473Z,16.05
2022-10-24T08:16:12.305Z,15.90
2022-10-24T08:18:40.131Z,9.27
2022-10-24T08:21:13.072Z,10.75
2022-10-24T08:23:41.960Z,8.82
2022-10-24T08:26:10.284Z,6.72
2022-10-24T08:28:36.909Z,5.45
2022-10-24T08:31:07.263Z,8.35
2022-10-24T08:33:35.345Z,13.07
2022-10-24T08:36:06.043Z,7.18
2022-10-24T08:38:32.713Z,7.72
2022-10-24T08:41:00.282Z,8.95
2022-10-24T08:43:26.917Z,12.02
2022-10-24T08:46:02.452Z,9.75
2022-10-24T08:48:57.252Z,7.28
2022-10-24T08:51:28.891Z,7.90
2022-10-24T08:53:57.994Z,7.72
2022-10-24T08:56:28.979Z,16.77
2022-10-24T08:58:55.995Z,7.75
2022-10-24T09:01:37.913Z,9.75
2022-10-24T09:04:07.683Z,8.68
2022-10-24T09:06:34.433Z,8.45
2022-10-24T09:09:04.021Z,10.52
2022-10-24T09:11:30.950Z,6.65
2022-10-24T09:14:00.461Z,9.90
2022-10-24T09:16:27.746Z,8.18
2022-10-24T09:18:55.906Z,10.35
2022-10-24T09:21:22.917Z,7.88
2022-10-24T09:23:50.909Z,8.60
2022-10-24T09:26:29.218Z,7.45
2022-10-24T09:28:57.090Z,13.90
2022-10-24T09:31:25.338Z,9.07
2022-10-24T09:33:52.826Z,8.80
2022-10-24T09:36:21.318Z,9.00
2022-10-24T09:38:49.183Z,7.97
2022-10-24T09:41:18.001Z,10.90
2022-10-24T09:43:44.541Z,15.90
2022-10-24T09:46:14.222Z,19.25
2022-10-24T09:49:00.976Z,22.13
2022-10-24T09:51:33.433Z,7.07
2022-10-24T09:56:41.074Z,5.72
2022-10-24T09:59:23.206Z,8.52
2022-10-24T10:01:49.896Z,9.50
2022-10-24T10:04:18.329Z,12.43
2022-10-24T10:06:49.997Z,14.30
2022-10-24T10:09:24.848Z,7.80
2022-10-24T10:12:05.807Z,8.80
2022-10-24T10:14:33.086Z,15.10
2022-10-24T10:17:01.726Z,9.02
2022-10-24T10:19:28.754Z,13.20
2022-10-24T10:22:02.025Z,7.18
2022-10-24T10:24:43.365Z,10.85
2022-10-24T10:27:33.030Z,7.78
2022-10-24T10:30:25.705Z,5.65
2022-10-24T10:33:14.323Z,10.40
2022-10-24T10:35:46.911Z,7.13
2022-10-24T10:38:50.190Z,15.27
2022-10-24T10:41:32.496Z,8.02
2022-10-24T10:44:30.070Z,10.75
2022-10-24T10:47:06.330Z,9.13
2022-10-24T10:49:39.951Z,11.90
2022-10-24T10:52:12.241Z,7.13
2022-10-24T10:54:47.901Z,14.48
2022-10-24T10:57:25.499Z,7.20
2022-10-24T11:00:03.348Z,9.25
2022-10-24T11:02:59.354Z,5.63
2022-10-24T11:05:51.359Z,13.30
2022-10-24T11:08:31.900Z,7.07
2022-10-24T11:11:03.534Z,7.38
2022-10-24T11:13:34.838Z,5.25
2022-10-24T11:16:06.128Z,4.18
2022-10-24T11:18:35.702Z,4.18
2022-10-24T11:21:13.893Z,6.25
2022-10-24T11:23:57.989Z,5.95
2022-10-24T11:26:54.015Z,4.15
2022-10-24T11:29:39.484Z,8.23
2022-10-24T11:32:19.413Z,6.80
2022-10-24T11:34:52.997Z,7.32
2022-10-24T11:37:28.085Z,3.58
2022-10-24T11:39:57.915Z,4.00
2022-10-24T11:42:48.107Z,5.50
2022-10-24T11:45:20.433Z,7.00
2022-10-24T11:48:05.958Z,10.15
2022-10-24T11:50:44.272Z,14.05
2022-10-24T11:53:10.806Z,9.10
2022-10-24T11:55:39.199Z,4.22
2022-10-24T11:58:13.504Z,5.80
2022-10-24T12:01:02.436Z,6.35
2022-10-24T12:03:48.036Z,6.82
2022-10-24T12:06:22.809Z,7.43
2022-10-24T12:09:16.725Z,5.15
2022-10-24T12:12:19.156Z,6.95
2022-10-24T12:15:07.659Z,7.43
2022-10-24T12:17:41.401Z,3.35
2022-10-24T12:20:14.894Z,4.65
2022-10-24T12:22:43.224Z,6.30
2022-10-24T12:25:47.207Z,6.32
2022-10-24T12:28:23.261Z,4.20
2022-10-24T12:31:10.176Z,4.93
2022-10-24T12:33:36.982Z,5.93
2022-10-24T12:36:03.815Z,2.83
2022-10-24T12:38:30.366Z,2.42
2022-10-24T12:41:06.830Z,5.97
2022-10-24T12:43:51.344Z,3.97
2022-10-24T12:46:23.145Z,5.55
2022-10-24T12:48:59.524Z,2.17
2022-10-24T12:51:33.165Z,5.43
2022-10-24T12:54:02.838Z,11.07
2022-10-24T12:56:33.707Z,8.30
2022-10-24T12:59:19.208Z,4.00
2022-10-24T13:01:47.412Z,2.15
2022-10-24T13:07:59.079Z,6.47
2022-10-24T13:10:47.879Z,11.32
2022-10-24T13:13:56.823Z,2.35
2022-10-24T13:16:38.313Z,2.28
2022-10-24T13:19:22.080Z,3.55
2022-10-24T13:21:51.444Z,2.47
2022-10-24T13:24:19.896Z,4.32
2022-10-24T13:26:48.819Z,3.63
2022-10-24T13:29:21.424Z,4.32
2022-10-24T13:31:52.793Z,4.25
2022-10-24T13:34:22.192Z,4.63
2022-10-24T13:36:52.430Z,1.55
2022-10-24T13:39:23.895Z,8.15
2022-10-24T13:41:58.056Z,2.67
2022-10-24T13:44:30.670Z,5.43
2022-10-24T13:47:25.652Z,3.72
2022-10-24T13:50:15.408Z,5.70
2022-10-24T13:52:44.556Z,3.78
2022-10-24T13:55:22.300Z,5.90
2022-10-24T13:57:56.189Z,4.50
2022-10-24T14:00:26.982Z,5.25
2022-10-24T14:02:54.815Z,5.15
2022-10-24T14:05:29.916Z,6.50
2022-10-24T14:07:57.971Z,4.43
2022-10-24T14:10:25.122Z,2.45
2022-10-24T14:12:57.044Z,9.27
2022-10-24T14:15:30.450Z,5.15
2022-10-24T14:17:58.368Z,5.18
2022-10-24T14:20:33.605Z,3.15
2022-10-24T14:23:00.781Z,3.78
2022-10-24T14:25:37.829Z,6.45
2022-10-24T14:28:17.949Z,5.57
2022-10-24T14:30:58.958Z,5.70
2022-10-24T14:33:30.110Z,6.45
2022-10-24T14:35:59.176Z,5.13
2022-10-24T14:38:27.110Z,3.85
2022-10-24T14:41:07.939Z,4.07
2022-10-24T14:43:37.327Z,2.03
2022-10-24T14:46:10.077Z,5.40
2022-10-24T14:48:37.324Z,2.30
2022-10-24T14:51:08.974Z,3.83
2022-10-24T14:53:37.345Z,3.30
2022-10-24T14:56:05.205Z,4.97
2022-10-24T14:58:33.573Z,3.03
2022-10-24T15:01:00.362Z,4.93
2022-10-24T15:03:28.810Z,4.65
2022-10-24T15:06:10.462Z,7.78
2022-10-24T15:08:39.591Z,4.72
2022-10-24T15:11:17.053Z,8.40
2022-10-24T15:14:00.028Z,3.70
2022-10-24T15:16:38.975Z,4.07
2022-10-24T15:19:14.947Z,3.67
2022-10-24T15:21:44.360Z,6.32
2022-10-24T15:24:25.274Z,3.90
2022-10-24T15:27:09.458Z,9.30
2022-10-24T15:29:36.100Z,2.63
2022-10-24T15:32:02.812Z,4.57
2022-10-24T15:34:32.812Z,6.00
2022-10-24T15:37:07.248Z,7.38
2022-10-24T15:39:36.509Z,3.92
2022-10-24T15:42:06.563Z,7.28
2022-10-24T15:44:35.353Z,8.23
2022-10-24T15:47:01.997Z,7.35
2022-10-24T15:49:29.086Z,4.40
2022-10-24T15:51:56.387Z,5.30
2022-10-24T15:54:23.317Z,5.93
2022-10-24T15:56:59.444Z,3.17
2022-10-24T15:59:28.742Z,5.00
2022-10-24T16:01:58.352Z,5.95
2022-10-24T16:04:25.049Z,1.83
2022-10-24T16:06:52.375Z,3.55
2022-10-24T16:09:23.005Z,7.70
2022-10-24T16:11:56.849Z,2.85
2022-10-24T16:14:26.247Z,8.18
2022-10-24T16:16:55.156Z,12.82
2022-10-24T16:19:22.772Z,10.35
2022-10-24T16:21:49.645Z,6.15
2022-10-24T16:24:16.413Z,9.25
2022-10-24T16:26:43.035Z,4.43
2022-10-24T16:29:10.188Z,5.50
2022-10-24T16:31:39.851Z,6.97
2022-10-24T16:34:07.442Z,7.35
2022-10-24T16:36:34.147Z,6.70
2022-10-24T16:39:00.791Z,5.38
2022-10-24T16:41:27.503Z,5.32
2022-10-24T16:43:56.239Z,6.57
2022-10-24T16:46:23.821Z,5.13
2022-10-24T16:48:50.706Z,4.95
2022-10-24T16:51:21.266Z,5.78
2022-10-24T16:53:47.920Z,8.15
2022-10-24T16:56:15.719Z,4.40
2022-10-24T16:58:42.871Z,2.58
2022-10-24T17:01:11.986Z,4.88
2022-10-24T17:03:39.323Z,4.28
2022-10-24T17:06:06.783Z,2.75
2022-10-24T17:08:33.750Z,6.20
2022-10-24T17:11:00.949Z,3.55
2022-10-24T17:13:28.107Z,7.80
2022-10-24T17:15:54.821Z,3.50
2022-10-24T17:18:23.511Z,2.80
2022-10-24T17:20:50.341Z,5.43
2022-10-24T17:23:20.825Z,8.00
2022-10-24T17:25:47.954Z,8.88
2022-10-24T17:28:16.180Z,7.07
2022-10-24T17:30:43.779Z,5.45
2022-10-24T17:33:11.293Z,8.43
2022-10-24T17:35:41.905Z,9.23
2022-10-24T17:38:26.813Z,7.45
2022-10-24T17:40:54.841Z,8.57
2022-10-24T17:43:23.884Z,10.02
2022-10-24T17:45:50.707Z,10.55
2022-10-24T17:48:17.859Z,7.10
2022-10-24T17:50:45.273Z,7.95
2022-10-24T17:53:17.018Z,9.40
2022-10-24T17:55:46.701Z,4.10
2022-10-24T17:58:14.719Z,8.52
2022-10-24T18:00:41.487Z,6.63
2022-10-24T18:03:11.082Z,6.80
2022-10-24T18:05:38.550Z,9.93
2022-10-24T18:08:07.205Z,10.93
2022-10-24T18:10:33.990Z,8.60
2022-10-24T18:13:00.784Z,7.45
2022-10-24T18:15:27.579Z,6.32
2022-10-24T18:17:54.218Z,12.32
2022-10-24T18:20:21.096Z,6.93
2022-10-24T18:22:48.026Z,6.00
2022-10-24T18:25:20.223Z,7.45
2022-10-24T18:27:49.645Z,8.85
2022-10-24T18:30:19.715Z,5.13
2022-10-24T18:32:47.394Z,4.65
2022-10-24T18:35:14.483Z,10.85
2022-10-24T18:37:41.319Z,4.47
2022-10-24T18:40:09.541Z,5.55
2022-10-24T18:42:54.413Z,1.95
2022-10-24T18:45:26.583Z,2.70
2022-10-24T18:47:54.050Z,4.07
2022-10-24T18:50:24.623Z,5.70
2022-10-24T18:53:06.712Z,5.93
2022-10-24T18:55:34.680Z,3.83
2022-10-24T18:58:02.138Z,2.30
2022-10-24T19:00:31.007Z,2.22
2022-10-24T19:03:18.738Z,2.15
2022-10-24T19:05:51.931Z,5.93
2022-10-24T19:08:23.733Z,3.78
2022-10-24T19:10:56.150Z,4.13
2022-10-24T19:13:24.704Z,5.90
2022-10-24T19:16:00.237Z,3.25
2022-10-24T19:18:28.861Z,5.75
2022-10-24T19:20:55.970Z,3.03
2022-10-24T19:23:23.737Z,8.48
2022-10-24T19:25:51.038Z,9.90
2022-10-24T19:28:19.356Z,4.97
2022-10-24T19:30:46.531Z,6.15
2022-10-24T19:33:14.466Z,8.65
2022-10-24T19:35:47.202Z,13.90
2022-10-24T19:38:15.006Z,10.10
2022-10-24T19:40:52.905Z,3.60
2022-10-24T19:43:23.482Z,8.32
2022-10-24T19:46:07.221Z,5.40
2022-10-24T19:48:37.299Z,7.93
2022-10-24T19:51:10.882Z,5.38
2022-10-24T19:53:39.793Z,4.07
2022-10-24T19:56:09.214Z,5.65
2022-10-24T19:58:36.943Z,8.20
2022-10-24T20:01:08.730Z,6.07
2022-10-24T20:03:36.742Z,4.47
2022-10-24T20:06:03.576Z,4.97
2022-10-24T20:08:30.260Z,4.50
2022-10-24T20:10:56.902Z,7.75
2022-10-24T20:13:23.597Z,2.13
2022-10-24T20:16:00.968Z,3.88
2022-10-24T20:18:28.365Z,4.18
2022-10-24T20:20:55.248Z,3.85
2022-10-24T20:23:22.688Z,1.27
2022-10-24T20:25:50.195Z,2.47
2022-10-24T20:28:17.113Z,3.08
2022-10-24T20:30:46.903Z,2.83
2022-10-24T20:33:14.897Z,3.72
2022-10-24T20:35:42.887Z,4.78
2022-10-24T20:38:09.808Z,7.57
2022-10-24T20:40:36.580Z,4.05
2022-10-24T20:43:04.726Z,11.15
2022-10-24T20:45:34.190Z,7.80
2022-10-24T20:48:01.538Z,4.85
2022-10-24T20:50:28.305Z,2.60
2022-10-24T20:52:55.217Z,4.50
2022-10-24T20:55:39.254Z,8.52
2022-10-24T20:58:12.142Z,5.18
2022-10-24T21:00:38.774Z,3.05
2022-10-24T21:03:05.452Z,6.05
2022-10-24T21:05:34.912Z,3.53
2022-10-24T21:08:01.617Z,4.78
2022-10-24T21:10:28.274Z,1.70
2022-10-24T21:12:55.269Z,8.65
2022-10-24T21:15:22.047Z,2.38
2022-10-24T21:17:48.946Z,4.45
2022-10-24T21:20:15.869Z,2.10
2022-10-24T21:22:42.620Z,1.40
2022-10-24T21:25:09.689Z,1.45
2022-10-24T21:27:36.274Z,1.98
2022-10-24T21:30:03.080Z,3.10
2022-10-24T21:32:29.680Z,2.45
2022-10-24T21:34:56.252Z,3.28
2022-10-24T21:37:22.831Z,1.48
2022-10-24T21:39:49.452Z,3.53
2022-10-24T21:42:16.148Z,0.75
2022-10-24T21:44:42.837Z,1.83
2022-10-24T21:47:09.505Z,3.55
2022-10-24T21:49:36.112Z,6.70
2022-10-24T21:52:02.793Z,1.98
2022-10-24T21:54:29.882Z,2.90
2022-10-24T21:56:59.802Z,6.30
2022-10-24T21:59:26.473Z,2.72
2022-10-24T22:01:53.576Z,3.90
2022-10-24T22:04:20.676Z,1.40
2022-10-24T22:06:47.435Z,2.78
2022-10-24T22:09:17.347Z,6.75
2022-10-24T22:11:44.803Z,2.55
2022-10-24T22:14:13.964Z,5.78
2022-10-24T22:16:41.131Z,1.38
2022-10-24T22:19:08.133Z,2.00
2022-10-24T22:21:36.024Z,1.27
2022-10-24T22:26:32.318Z,2.47
2022-10-24T22:28:59.048Z,5.97
2022-10-24T22:31:27.889Z,1.17
2022-10-24T22:33:55.777Z,0.82
2022-10-24T22:36:41.196Z,1.23
2022-10-24T22:39:16.856Z,2.08
2022-10-24T22:41:44.667Z,3.85
2022-10-24T22:44:12.782Z,6.30
2022-10-24T22:47:16.844Z,1.60
2022-10-24T22:49:54.278Z,2.40
2022-10-24T22:52:21.235Z,3.42
2022-10-24T22:54:48.106Z,4.15
2022-10-24T22:57:14.936Z,2.85
2022-10-24T22:59:41.858Z,7.88
2022-10-24T23:02:23.899Z,0.60
2022-10-24T23:04:59.966Z,6.38
2022-10-24T23:07:41.986Z,3.33
2022-10-24T23:10:16.489Z,0.73
2022-10-24T23:12:43.486Z,1.38
2022-10-24T23:15:13.610Z,2.45
2022-10-24T23:17:40.806Z,2.40
2022-10-24T23:20:19.844Z,2.72
2022-10-24T23:22:54.271Z,2.05
2022-10-24T23:25:30.257Z,3.38
2022-10-24T23:28:15.283Z,3.90
2022-10-24T23:30:42.171Z,2.80
2022-10-24T23:33:13.743Z,2.03
2022-10-24T23:35:40.606Z,1.50
2022-10-24T23:38:09.588Z,2.28
2022-10-24T23:40:36.667Z,3.30
2022-10-24T23:43:04.488Z,2.22
2022-10-24T23:45:54.167Z,1.83
2022-10-24T23:48:39.550Z,1.10
2022-10-24T23:51:13.836Z,2.28
2022-10-24T23:53:50.067Z,4.65
2022-10-24T23:56:25.675Z,5.22
2022-10-24T23:58:52.679Z,2.65
